Time;durP1;ratioP1;P1;durP2;ratioP2;P2;SDS_P1;SDS_P2;PMS_P1;PMS_P2;Temp;Humidity;BMP_temperature;BMP_pressure;BME280_temperature;BME280_humidity;BME280_pressure;Samples;Min_cycle;Max_cycle;Signal;HPM_P1;HPM_P2
2023/03/08 00:02:17;;;;;;;24.98;16.77;;;3.80;99.90;;;;;;6155944;23;20396;-76
2023/03/08 00:04:44;;;;;;;24.98;17.23;;;3.90;99.90;;;;;;6181971;23;20373;-76
2023/03/08 00:07:10;;;;;;;26.05;17.20;;;3.90;99.90;;;;;;6155728;23;20380;-76
2023/03/08 00:09:37;;;;;;;23.70;16.63;;;3.90;99.90;;;;;;6155468;23;20376;-76
2023/03/08 00:12:06;;;;;;;25.05;17.40;;;3.90;99.90;;;;;;6154922;23;20376;-76
2023/03/08 00:14:33;;;;;;;28.77;17.53;;;3.90;99.90;;;;;;6155501;23;20380;-77
2023/03/08 00:17:01;;;;;;;24.33;17.02;;;3.90;99.90;;;;;;6154766;23;20384;-77
2023/03/08 00:19:28;;;;;;;23.02;16.42;;;4.00;99.90;;;;;;6155705;23;20451;-76
2023/03/08 00:21:55;;;;;;;26.23;16.38;;;4.00;99.90;;;;;;6154762;23;20391;-77
2023/03/08 00:24:22;;;;;;;23.25;16.50;;;3.90;99.90;;;;;;6155335;23;20369;-76
2023/03/08 00:26:48;;;;;;;26.05;16.45;;;4.00;99.90;;;;;;6180569;23;20682;-76
2023/03/08 00:29:15;;;;;;;23.25;16.08;;;4.00;99.90;;;;;;6181995;23;20376;-76
2023/03/08 00:31:42;;;;;;;27.02;18.10;;;3.90;99.90;;;;;;6155277;23;20369;-75
2023/03/08 00:34:09;;;;;;;27.33;19.27;;;3.80;99.90;;;;;;6154497;23;20399;-76
2023/03/08 00:36:36;;;;;;;22.13;16.23;;;3.50;99.90;;;;;;6156050;23;20372;-76
2023/03/08 00:39:03;;;;;;;24.98;16.13;;;3.50;99.90;;;;;;6154798;23;20384;-76
2023/03/08 00:41:30;;;;;;;22.00;15.00;;;3.40;99.90;;;;;;6155554;23;20439;-76
2023/03/08 00:43:57;;;;;;;24.10;15.88;;;3.40;99.90;;;;;;6181179;23;20383;-76
2023/03/08 00:46:24;;;;;;;21.20;15.35;;;3.40;99.90;;;;;;6155705;23;20373;-76
2023/03/08 00:48:51;;;;;;;24.15;15.38;;;3.30;99.90;;;;;;6180406;23;21277;-76
2023/03/08 00:51:19;;;;;;;20.33;14.82;;;3.30;99.90;;;;;;6181831;23;20368;-76
2023/03/08 00:53:47;;;;;;;20.33;14.95;;;3.30;99.90;;;;;;6181168;23;20376;-76
2023/03/08 00:56:14;;;;;;;24.73;16.30;;;3.30;99.90;;;;;;6181029;23;20430;-76
2023/03/08 00:58:41;;;;;;;24.00;15.95;;;3.30;99.90;;;;;;6155120;23;20430;-76
2023/03/08 01:01:14;;;;;;;21.77;15.95;;;3.40;99.90;;;;;;6154920;23;20786;-78
2023/03/08 01:03:41;;;;;;;22.35;15.73;;;3.40;99.90;;;;;;6150487;23;20836;-76
2023/03/08 01:06:11;;;;;;;21.58;15.32;;;3.40;99.90;;;;;;6148426;23;20715;-76
2023/03/08 01:08:41;;;;;;;20.77;15.30;;;3.40;99.90;;;;;;6155526;23;20379;-76
2023/03/08 01:11:19;;;;;;;21.90;15.25;;;3.40;99.90;;;;;;6179789;23;20423;-76
2023/03/08 01:13:46;;;;;;;23.38;15.70;;;3.40;99.90;;;;;;6155483;23;20380;-76
2023/03/08 01:16:26;;;;;;;20.75;14.75;;;3.50;99.90;;;;;;6154717;23;20368;-76
2023/03/08 01:18:54;;;;;;;20.77;14.43;;;3.50;99.90;;;;;;6153849;23;20376;-78
2023/03/08 01:21:22;;;;;;;23.40;15.10;;;3.50;99.90;;;;;;6155652;23;20746;-76
2023/03/08 01:23:50;;;;;;;20.33;14.55;;;3.50;99.90;;;;;;6154775;23;20455;-76
2023/03/08 01:26:20;;;;;;;22.67;15.68;;;3.40;99.90;;;;;;6179977;23;20372;-75
2023/03/08 01:28:47;;;;;;;21.23;15.18;;;3.40;99.90;;;;;;6154956;23;20483;-77
2023/03/08 01:31:20;;;;;;;20.75;14.52;;;3.30;99.90;;;;;;6154453;23;20444;-76
2023/03/08 01:33:47;;;;;;;19.75;13.85;;;3.20;99.90;;;;;;6154870;23;20454;-76
2023/03/08 01:36:18;;;;;;;18.92;13.43;;;3.00;99.90;;;;;;6154409;23;20743;-76
2023/03/08 01:38:46;;;;;;;18.55;12.68;;;3.00;99.90;;;;;;6155157;23;20377;-76
2023/03/08 01:41:19;;;;;;;17.50;11.68;;;2.90;99.90;;;;;;6153679;23;20400;-76
2023/03/08 01:43:47;;;;;;;17.60;12.13;;;2.80;99.90;;;;;;6155114;23;20385;-76
2023/03/08 01:46:21;;;;;;;16.75;12.45;;;2.80;99.90;;;;;;6154219;23;20372;-76
2023/03/08 01:49:00;;;;;;;17.95;12.50;;;2.80;99.90;;;;;;6155097;23;20372;-76
2023/03/08 01:51:40;;;;;;;20.90;14.60;;;2.80;99.90;;;;;;6154775;23;20406;-77
2023/03/08 01:54:22;;;;;;;20.53;14.97;;;2.70;99.90;;;;;;6154509;23;20400;-77
2023/03/08 01:56:52;;;;;;;20.27;13.57;;;2.70;99.90;;;;;;6154894;23;20364;-77
2023/03/08 01:59:21;;;;;;;19.23;12.80;;;2.70;99.90;;;;;;6154108;23;20396;-77
2023/03/08 02:01:48;;;;;;;17.10;13.27;;;2.70;99.90;;;;;;6154234;23;20755;-78
